METAR AND TAF INFORMATION
METAR FOR LZKZ
ADDS - METARS form results

(0419 UTC 20 May 2022)
Data provider http://aviationweather.gov/metar/data/
 
METAR text: LZKZ 200400Z VRB02KT CAVOK 08/05 Q1024 NOSIG
Conditions at: LZKZ (KOSICE BARCA , SK) observed 0400 UTC 20 May 2022
Temperature: 8.0°C (46°F)
Dewpoint: 5.0°C (41°F) [RH = 81%]
Pressure (altimeter): 30.24 inches Hg (1024.0 mb)
Winds: variable direction winds at 2 MPH (2 knots; 1.0 m/s)
Visibility: 6 or more miles (10+ km)
Ceiling: ceiling and visibility are OK
Clouds: unknown
Weather: no significant weather observed at this time

METAR text: LZKZ 200330Z VRB01KT CAVOK 07/04 Q1024 NOSIG
Conditions at: LZKZ (KOSICE BARCA , SK) observed 0330 UTC 20 May 2022
Temperature: 7.0°C (45°F)
Dewpoint: 4.0°C (39°F) [RH = 81%]
Pressure (altimeter): 30.24 inches Hg (1024.0 mb)
Winds: variable direction winds at 1 MPH (1 knots; 0.5 m/s)
Visibility: 6 or more miles (10+ km)
Ceiling: ceiling and visibility are OK
Clouds: unknown
Weather: no significant weather observed at this time

Forecast for: LZKZ (KOSICE BARCA , SK)
Text: TAF LZKZ 192315Z 2000/2100 19003KT CAVOK
Forecast period: 0000 to 0700 UTC 20 May 2022
Forecast type: FROM: standard forecast or significant change
Winds: from the S (190 degrees) at 3 MPH (3 knots; 1.5 m/s)
Visibility: 6 or more miles (10+ km)
Ceiling: unknown
Clouds: missing
Weather: NSW  (no significant weather)
Text: BECMG 2007/2009 22013KT
Forecast period: 0700 to 1700 UTC 20 May 2022
Forecast type: BECOMING: Conditions expected to become as follows by 0900 UTC 20 May 2022
Winds: from the SW (220 degrees) at 15 MPH (13 knots; 6.7 m/s)
Visibility: 6 or more miles (10+ km)
Ceiling: unknown
Clouds: missing
Weather: NSW  (no significant weather)
Text: BECMG 2017/2019 VRB02KT
Forecast period: 1700 UTC 20 May 2022 to 0000 UTC 21 May 2022
Forecast type: BECOMING: Conditions expected to become as follows by 1900 UTC 20 May 2022
Winds: variable direction winds at 2 MPH (2 knots; 1.0 m/s)
Visibility: 6 or more miles (10+ km)
Ceiling: unknown
Clouds: missing
Weather: NSW  (no significant weather)

 AIRPORT MAP

 RUNWAY INFORMATION
Runway 01 Runway length 10171 ft Runway width 148 ft
Runway elevation 739 ft Runway displaced threshold 0 ft Runway heading 13
Runway 19 Runway length 10171 ft Runway width 148 ft
Runway elevation 753 ft Runway displaced threshold 0 ft Runway heading 193

 AIRPORT FREQUENCIES
Type APP Name APP Frequency 119.85 MHZ
Type TWR Name TWR Frequency 120.4 MHZ

 AIRPORT NEAR NAVIGATION AIDS
Type NDB Name Kosice Frequency 425 KHZ
Type VOR-DME Name Kosice Frequency 108200 KHZ